createdAt,value
2019-05-18T05:11:44.907Z,1.12
2019-05-18T05:21:45.720Z,1.47
2019-05-18T05:31:42.923Z,3.15
2019-05-18T05:41:42.256Z,3.59
2019-05-18T05:51:44.481Z,3.74
2019-05-18T06:01:41.799Z,3.68
2019-05-18T06:11:44.833Z,2.66
2019-05-18T06:21:42.544Z,2.74
2019-05-18T06:31:42.407Z,3.42
2019-05-18T06:41:42.582Z,3.68
2019-05-18T06:51:42.447Z,4.16
2019-05-18T07:01:42.522Z,4.41
2019-05-18T07:11:42.202Z,4.77
2019-05-18T07:21:42.465Z,3.69
2019-05-18T07:31:42.437Z,2.45
2019-05-18T07:41:46.641Z,2.30
2019-05-18T07:51:42.465Z,1.46
2019-05-18T08:01:44.798Z,0.00
2019-05-18T08:11:42.666Z,0.00
2019-05-18T08:21:52.678Z,0.00
2019-05-18T08:31:44.901Z,0.00
2019-05-18T08:41:42.977Z,0.00
2019-05-18T08:51:42.599Z,0.00
2019-05-18T09:01:42.343Z,0.00
2019-05-18T09:11:42.451Z,0.00
2019-05-18T09:21:42.632Z,0.00
2019-05-18T09:31:42.706Z,0.00
2019-05-18T09:41:42.628Z,0.00
2019-05-18T09:51:42.374Z,0.00
2019-05-18T10:01:42.654Z,0.00
2019-05-18T10:11:44.476Z,0.00
2019-05-18T10:21:42.808Z,0.00
2019-05-18T10:31:42.687Z,0.00
2019-05-18T10:41:44.701Z,0.00
2019-05-18T10:51:42.348Z,0.00
2019-05-18T11:01:43.986Z,0.00
2019-05-18T11:11:41.844Z,0.00
2019-05-18T11:21:41.802Z,0.00
2019-05-18T11:31:42.179Z,0.00
2019-05-18T11:41:43.291Z,0.00
2019-05-18T11:51:41.914Z,0.00
2019-05-18T12:01:44.243Z,0.00
2019-05-18T12:11:46.268Z,0.00
2019-05-18T12:21:42.134Z,0.00
2019-05-18T12:31:42.252Z,0.00
2019-05-18T12:41:42.146Z,0.00
2019-05-18T12:51:41.932Z,0.00
2019-05-18T13:01:45.800Z,0.00
2019-05-18T13:11:42.804Z,0.00
2019-05-18T13:21:41.973Z,0.00
2019-05-18T13:31:42.014Z,0.00
2019-05-18T13:41:42.707Z,0.00
2019-05-18T13:51:44.633Z,0.00
2019-05-18T14:01:44.846Z,0.00
2019-05-18T14:11:42.101Z,0.00
2019-05-18T14:21:42.699Z,0.00
2019-05-18T14:31:42.339Z,0.00
2019-05-18T14:41:43.964Z,0.00
2019-05-18T14:51:43.660Z,0.00
2019-05-18T15:01:43.997Z,0.00
2019-05-18T15:11:42.434Z,0.00
2019-05-18T15:21:42.407Z,0.00
2019-05-18T15:31:42.271Z,0.00
2019-05-18T15:41:42.247Z,0.00
2019-05-18T15:51:42.311Z,0.00
2019-05-18T16:01:41.992Z,0.00
2019-05-18T16:11:42.758Z,0.00
2019-05-18T16:21:42.822Z,0.00
2019-05-18T16:31:41.153Z,0.00
2019-05-18T16:41:42.979Z,0.00
2019-05-18T16:51:44.689Z,0.00
2019-05-18T17:01:42.819Z,0.00
2019-05-18T17:11:42.790Z,0.00
2019-05-18T17:21:43.187Z,0.00
2019-05-18T17:31:44.599Z,0.00
2019-05-18T17:41:45.079Z,0.48
2019-05-18T17:51:42.965Z,4.51
2019-05-18T18:01:43.160Z,3.61
2019-05-18T18:11:43.011Z,3.09
2019-05-18T18:21:42.466Z,2.38
2019-05-18T18:31:44.893Z,1.47
2019-05-18T18:41:43.010Z,0.03
2019-05-18T18:51:43.089Z,0.00
2019-05-18T19:01:44.177Z,0.00
